Time;durP1;ratioP1;P1;durP2;ratioP2;P2;SDS_P1;SDS_P2;PMS_P1;PMS_P2;Temp;Humidity;BMP_temperature;BMP_pressure;BME280_temperature;BME280_humidity;BME280_pressure;Samples;Min_cycle;Max_cycle;Signal;HPM_P1;HPM_P2
2022/10/27 00:01:08;;;;;;;8.82;5.38;;;13.40;99.90;;;;;;5088144;28;21642;-74
2022/10/27 00:03:34;;;;;;;12.25;5.60;;;13.30;99.90;;;;;;5097922;28;20028;-75
2022/10/27 00:06:04;;;;;;;13.45;5.45;;;13.30;99.90;;;;;;5098547;28;20112;-77
2022/10/27 00:08:30;;;;;;;9.73;5.80;;;13.30;99.90;;;;;;5098877;28;20024;-74
2022/10/27 00:10:58;;;;;;;10.02;5.05;;;13.50;99.90;;;;;;5095300;28;20027;-76
2022/10/27 00:13:24;;;;;;;10.68;4.82;;;13.30;99.90;;;;;;5089493;28;20125;-78
2022/10/27 00:16:08;;;;;;;9.68;4.65;;;13.30;99.90;;;;;;5101015;28;20047;-79
2022/10/27 00:18:34;;;;;;;5.82;4.55;;;13.40;99.90;;;;;;5086805;28;20040;-75
2022/10/27 00:21:51;;;;;;;10.98;4.35;;;13.40;99.90;;;;;;5099941;28;20078;-77
2022/10/27 00:24:18;;;;;;;9.93;4.60;;;14.80;99.90;;;;;;5072380;28;20040;-74
2022/10/27 00:29:35;;;;;;;9.85;4.93;;;13.60;99.90;;;;;;5048916;28;20222;-75
2022/10/27 00:32:00;;;;;;;8.15;4.50;;;13.40;99.90;;;;;;5057630;28;20048;-76
2022/10/27 00:34:26;;;;;;;11.43;4.70;;;13.50;99.90;;;;;;5039172;28;20028;-76
2022/10/27 00:36:52;;;;;;;8.43;4.00;;;13.30;99.90;;;;;;5093501;28;20036;-76
2022/10/27 00:39:18;;;;;;;12.65;4.80;;;13.40;99.90;;;;;;5089199;28;20036;-76
2022/10/27 00:41:44;;;;;;;11.10;4.85;;;13.40;99.90;;;;;;5081545;28;20490;-76
2022/10/27 00:44:29;;;;;;;11.52;5.50;;;13.20;99.90;;;;;;5102083;28;20035;-77
2022/10/27 00:47:39;;;;;;;9.48;4.30;;;13.50;99.90;;;;;;5090742;28;20028;-78
2022/10/27 00:50:25;;;;;;;9.07;4.68;;;13.40;99.90;;;;;;5097990;28;20039;-76
2022/10/27 00:52:57;;;;;;;10.98;4.72;;;13.40;99.90;;;;;;5090256;28;20032;-79
2022/10/27 00:55:33;;;;;;;7.80;4.50;;;13.60;99.90;;;;;;5107596;28;20036;-76
2022/10/27 00:58:03;;;;;;;6.40;4.38;;;13.30;99.90;;;;;;5106908;28;20048;-77
2022/10/27 01:00:29;;;;;;;10.95;5.30;;;13.30;99.90;;;;;;5099980;28;20036;-77
2022/10/27 01:03:03;;;;;;;11.90;6.00;;;13.50;99.90;;;;;;5102532;28;20031;-79
2022/10/27 01:05:45;;;;;;;11.48;5.75;;;13.50;99.90;;;;;;5104965;28;20357;-78
2022/10/27 01:08:22;;;;;;;14.00;5.80;;;13.20;99.90;;;;;;5078310;28;20054;-78
2022/10/27 01:10:47;;;;;;;12.80;5.80;;;13.70;99.90;;;;;;5088825;28;20176;-76
2022/10/27 01:13:13;;;;;;;13.02;6.43;;;14.90;99.90;;;;;;5110929;28;20036;-77
2022/10/27 01:15:57;;;;;;;8.65;5.60;;;13.20;99.90;;;;;;5104217;28;20036;-75
2022/10/27 01:18:51;;;;;;;12.63;6.38;;;13.50;99.90;;;;;;5114416;28;20222;-77
2022/10/27 01:22:01;;;;;;;13.07;6.45;;;13.20;99.90;;;;;;5119233;28;20089;-77
2022/10/27 01:24:50;;;;;;;12.00;5.85;;;13.30;99.90;;;;;;5103311;28;20085;-75
2022/10/27 01:27:28;;;;;;;17.20;7.25;;;13.20;99.90;;;;;;5108727;28;20195;-77
2022/10/27 01:30:01;;;;;;;11.60;7.18;;;13.40;99.90;;;;;;5114644;28;20039;-76
2022/10/27 01:32:38;;;;;;;12.55;7.25;;;13.70;99.90;;;;;;5089632;28;20031;-76
2022/10/27 01:35:33;;;;;;;12.18;6.78;;;13.40;99.90;;;;;;5103881;28;20041;-75
2022/10/27 01:38:11;;;;;;;12.45;6.22;;;13.80;99.90;;;;;;5073169;28;20035;-77
2022/10/27 01:40:45;;;;;;;11.95;6.28;;;13.40;99.90;;;;;;5103299;28;20237;-75
2022/10/27 01:43:14;;;;;;;;;;;13.70;99.90;;;;;;5086583;28;20043;-76
2022/10/27 01:45:40;;;;;;;9.98;6.30;;;13.90;99.90;;;;;;5109215;28;19912;-76
2022/10/27 01:48:08;;;;;;;13.70;7.10;;;13.80;99.90;;;;;;5108171;28;20066;-75
2022/10/27 01:50:36;;;;;;;13.02;6.47;;;13.50;99.90;;;;;;5098075;28;20114;-76
2022/10/27 01:53:12;;;;;;;12.48;6.93;;;13.70;99.90;;;;;;5099889;28;20043;-77
2022/10/27 01:56:02;;;;;;;10.38;6.30;;;13.70;99.90;;;;;;5101767;28;20066;-77
2022/10/27 01:59:08;;;;;;;12.88;7.03;;;13.70;99.90;;;;;;5094123;28;20384;-76
2022/10/27 02:01:52;;;;;;;11.70;7.28;;;13.50;99.90;;;;;;5102113;28;20407;-77
2022/10/27 02:04:36;;;;;;;13.40;7.70;;;13.50;99.90;;;;;;5114149;28;20253;-77
2022/10/27 02:07:16;;;;;;;9.60;7.20;;;13.70;99.90;;;;;;5113514;28;20419;-76
2022/10/27 02:09:48;;;;;;;12.80;6.80;;;13.80;99.90;;;;;;5104442;28;20191;-75
2022/10/27 02:12:38;;;;;;;14.02;7.60;;;13.80;99.90;;;;;;5113338;28;20066;-77
2022/10/27 02:15:12;;;;;;;9.13;6.97;;;13.80;99.90;;;;;;5096241;28;20073;-75
2022/10/27 02:17:41;;;;;;;11.05;7.85;;;13.60;99.90;;;;;;5100505;28;20051;-76
2022/10/27 02:20:13;;;;;;;12.38;7.95;;;13.60;99.90;;;;;;5102986;28;20028;-76
2022/10/27 02:22:43;;;;;;;15.27;7.78;;;13.80;99.90;;;;;;5095032;28;20031;-77
2022/10/27 02:25:09;;;;;;;10.45;7.38;;;13.60;99.90;;;;;;5105973;28;20036;-77
2022/10/27 02:27:43;;;;;;;12.68;7.18;;;13.90;99.90;;;;;;5099876;28;20047;-77
2022/10/27 02:30:09;;;;;;;10.57;7.13;;;13.60;99.90;;;;;;5097521;28;20350;-75
2022/10/27 02:32:36;;;;;;;13.40;7.55;;;13.90;99.90;;;;;;5104304;28;20800;-76
2022/10/27 02:35:04;;;;;;;11.57;7.63;;;13.90;99.90;;;;;;5099523;28;20042;-76
2022/10/27 02:37:35;;;;;;;14.32;8.32;;;13.90;99.90;;;;;;5097401;28;20039;-76
2022/10/27 02:40:02;;;;;;;12.30;7.07;;;13.60;99.90;;;;;;5113475;28;20222;-76
2022/10/27 02:42:27;;;;;;;11.20;7.78;;;13.90;99.90;;;;;;5081152;28;20035;-75
2022/10/27 02:44:53;;;;;;;11.20;7.88;;;13.80;99.90;;;;;;5083991;28;20027;-76
2022/10/27 02:47:22;;;;;;;15.65;7.93;;;13.60;99.90;;;;;;5084078;28;20034;-77
2022/10/27 02:49:47;;;;;;;13.80;8.27;;;13.90;99.90;;;;;;5094710;28;20036;-77
2022/10/27 02:52:13;;;;;;;12.75;7.50;;;14.00;99.90;;;;;;5074084;28;20176;-77
2022/10/27 02:54:40;;;;;;;16.92;8.00;;;13.60;99.90;;;;;;5088239;28;20028;-75
2022/10/27 02:57:06;;;;;;;12.13;8.38;;;13.90;99.90;;;;;;5076857;28;20108;-77
2022/10/27 02:59:31;;;;;;;14.27;7.82;;;13.80;99.90;;;;;;5115662;28;20048;-76
2022/10/27 03:01:57;;;;;;;16.88;9.23;;;13.60;99.90;;;;;;5097145;28;20214;-79
2022/10/27 03:04:23;;;;;;;20.15;8.90;;;13.90;99.90;;;;;;5103894;28;20042;-77
2022/10/27 03:06:48;;;;;;;14.88;9.18;;;13.90;99.90;;;;;;5107516;28;20028;-78
2022/10/27 03:09:24;;;;;;;14.32;8.20;;;13.50;99.90;;;;;;5097111;28;20024;-78
2022/10/27 03:11:50;;;;;;;17.65;9.18;;;13.90;99.90;;;;;;5083931;28;20036;-78
2022/10/27 03:14:16;;;;;;;13.88;9.35;;;13.60;99.90;;;;;;5096835;28;20363;-75
2022/10/27 03:16:44;;;;;;;13.90;8.50;;;13.40;99.90;;;;;;5107681;28;20035;-77
2022/10/27 03:19:10;;;;;;;11.50;8.50;;;13.60;99.90;;;;;;5100049;28;20099;-76
2022/10/27 03:21:39;;;;;;;11.15;8.43;;;13.40;99.90;;;;;;5082841;28;20024;-75
2022/10/27 03:24:04;;;;;;;16.92;8.18;;;13.70;99.90;;;;;;5096911;28;20034;-77
2022/10/27 03:26:30;;;;;;;12.40;8.07;;;13.40;99.90;;;;;;5078706;28;20099;-77
2022/10/27 03:28:56;;;;;;;13.88;7.95;;;13.60;99.90;;;;;;5095323;28;20333;-76
2022/10/27 03:31:22;;;;;;;10.35;8.02;;;13.60;99.90;;;;;;5114146;28;20098;-75
2022/10/27 03:33:47;;;;;;;12.27;8.02;;;13.30;99.90;;;;;;5103254;28;20028;-77
2022/10/27 03:36:13;;;;;;;12.93;7.70;;;13.70;99.90;;;;;;5101817;28;20652;-76
2022/10/27 03:38:39;;;;;;;13.23;9.18;;;13.50;99.90;;;;;;5083019;28;20137;-77
2022/10/27 03:41:05;;;;;;;13.00;8.55;;;13.90;99.90;;;;;;5092286;28;20050;-77
2022/10/27 03:43:30;;;;;;;15.85;9.00;;;13.60;99.90;;;;;;5082675;28;20027;-76
2022/10/27 03:45:56;;;;;;;19.90;10.00;;;13.50;99.90;;;;;;5083244;28;20087;-76
2022/10/27 03:48:22;;;;;;;17.42;10.02;;;13.50;99.90;;;;;;5109584;28;20054;-76
2022/10/27 03:50:49;;;;;;;14.98;9.35;;;13.90;99.90;;;;;;5099369;28;20032;-75
2022/10/27 03:53:15;;;;;;;14.73;8.80;;;14.10;99.90;;;;;;5095807;28;20034;-76
2022/10/27 03:55:41;;;;;;;13.10;8.27;;;14.10;99.90;;;;;;5092303;28;20059;-76
2022/10/27 03:58:12;;;;;;;12.90;8.82;;;13.60;99.90;;;;;;5103981;28;20059;-77
2022/10/27 04:00:38;;;;;;;13.27;8.57;;;13.90;99.90;;;;;;5103883;28;20042;-75
2022/10/27 04:03:04;;;;;;;11.43;8.82;;;14.00;99.90;;;;;;5085650;28;20573;-75
2022/10/27 04:05:30;;;;;;;13.63;8.52;;;14.10;99.90;;;;;;5085819;28;20066;-76
2022/10/27 04:07:55;;;;;;;12.27;8.73;;;13.90;99.90;;;;;;5087833;28;20211;-78
2022/10/27 04:10:21;;;;;;;12.98;8.60;;;14.00;99.90;;;;;;5112511;28;20306;-76
2022/10/27 04:12:53;;;;;;;14.63;8.60;;;13.60;99.90;;;;;;5094102;28;20040;-76
2022/10/27 04:15:19;;;;;;;18.17;9.50;;;14.10;99.90;;;;;;5115357;28;20084;-75
2022/10/27 04:17:46;;;;;;;14.27;8.85;;;13.50;99.90;;;;;;5081383;28;20171;-77
2022/10/27 04:20:12;;;;;;;12.80;9.63;;;13.80;99.90;;;;;;5102619;28;20310;-76
2022/10/27 04:22:39;;;;;;;19.42;10.35;;;13.90;99.90;;;;;;5114363;28;20429;-77
2022/10/27 04:25:05;;;;;;;12.10;8.80;;;13.50;99.90;;;;;;5099436;28;20027;-75
2022/10/27 04:27:31;;;;;;;16.75;9.52;;;13.90;99.90;;;;;;5090315;28;20040;-77
2022/10/27 04:29:56;;;;;;;15.13;9.50;;;13.40;99.90;;;;;;5067868;28;20031;-76
2022/10/27 04:32:22;;;;;;;15.02;9.10;;;13.40;99.90;;;;;;5085584;28;20031;-75
2022/10/27 04:34:48;;;;;;;13.68;9.02;;;13.40;99.90;;;;;;5112221;28;20032;-76
2022/10/27 04:37:13;;;;;;;11.55;9.00;;;13.40;99.90;;;;;;5070516;28;20055;-76
2022/10/27 04:40:07;;;;;;;;;;;;;;;;;;;;;
2022/10/27 04:42:54;;;;;;;12.35;8.75;;;13.50;99.90;;;;;;5108099;28;20106;-78
2022/10/27 04:45:20;;;;;;;15.18;8.93;;;13.50;99.90;;;;;;5099029;28;20348;-75
2022/10/27 04:48:00;;;;;;;15.93;9.18;;;13.80;99.90;;;;;;5089871;28;20028;-77
2022/10/27 04:50:25;;;;;;;12.10;8.10;;;13.70;99.90;;;;;;5088058;28;20047;-76
2022/10/27 04:52:56;;;;;;;13.30;8.70;;;13.90;99.90;;;;;;5078142;28;20024;-76
2022/10/27 04:55:23;;;;;;;14.45;8.30;;;13.90;99.90;;;;;;5082314;28;20099;-76
2022/10/27 04:57:48;;;;;;;16.02;8.52;;;13.50;99.90;;;;;;5104332;28;20067;-77
2022/10/27 05:00:14;;;;;;;13.48;8.45;;;13.70;99.90;;;;;;5082683;28;20594;-77
2022/10/27 05:02:43;;;;;;;13.45;8.73;;;13.60;99.90;;;;;;5097629;28;20269;-76
2022/10/27 05:05:09;;;;;;;16.65;8.90;;;13.40;99.90;;;;;;5099508;28;20028;-78
2022/10/27 05:07:35;;;;;;;15.57;8.90;;;13.70;99.90;;;;;;5107705;28;20039;-76
2022/10/27 05:10:00;;;;;;;13.45;9.07;;;13.90;99.90;;;;;;5099899;28;20035;-75
2022/10/27 05:12:26;;;;;;;11.10;8.60;;;13.70;99.90;;;;;;5079637;28;20089;-79
2022/10/27 05:14:52;;;;;;;13.35;8.13;;;13.30;99.90;;;;;;5081820;28;20036;-75
2022/10/27 05:17:17;;;;;;;11.15;7.80;;;13.30;99.90;;;;;;5082697;28;20104;-74
2022/10/27 05:19:43;;;;;;;16.35;8.43;;;13.30;99.90;;;;;;5103797;28;20260;-76
2022/10/27 05:22:09;;;;;;;15.07;8.82;;;13.20;99.90;;;;;;5076528;28;20046;-75
2022/10/27 05:24:34;;;;;;;15.27;8.88;;;13.40;99.90;;;;;;5084373;28;20108;-74
2022/10/27 05:27:00;;;;;;;13.13;8.60;;;13.50;99.90;;;;;;5104366;28;20031;-75
2022/10/27 05:29:26;;;;;;;14.73;8.52;;;13.30;99.90;;;;;;5100051;28;20048;-74
2022/10/27 05:31:52;;;;;;;15.02;8.35;;;13.40;99.90;;;;;;5076030;28;20035;-74
2022/10/27 05:34:17;;;;;;;15.50;8.90;;;13.40;99.90;;;;;;5087663;28;20105;-76
2022/10/27 05:36:43;;;;;;;13.68;8.75;;;13.50;99.90;;;;;;5093896;28;20031;-75
2022/10/27 05:39:26;;;;;;;17.67;10.05;;;13.20;99.90;;;;;;5111622;28;20076;-76
2022/10/27 05:41:52;;;;;;;13.38;9.10;;;13.90;99.90;;;;;;5099888;28;20031;-75
2022/10/27 05:44:17;;;;;;;17.23;9.38;;;13.30;99.90;;;;;;5088947;28;20501;-76
2022/10/27 05:46:44;;;;;;;11.98;7.72;;;13.30;99.90;;;;;;5080846;28;20055;-76
2022/10/27 05:49:09;;;;;;;16.70;9.35;;;13.90;99.90;;;;;;5103820;28;20032;-76
2022/10/27 05:51:35;;;;;;;14.32;10.05;;;13.50;99.90;;;;;;5109382;27;20103;-76
2022/10/27 05:54:33;;;;;;;12.82;8.95;;;13.80;99.90;;;;;;5096226;28;20191;-76
2022/10/27 05:56:58;;;;;;;18.30;9.77;;;14.50;99.90;;;;;;5092560;28;20341;-76
2022/10/27 05:59:24;;;;;;;11.05;7.65;;;13.90;99.90;;;;;;5097537;28;20054;-76
2022/10/27 06:01:50;;;;;;;16.08;10.52;;;13.80;99.90;;;;;;5100460;28;20035;-76
2022/10/27 06:04:15;;;;;;;16.42;10.02;;;13.50;99.90;;;;;;5111538;28;20112;-74
2022/10/27 06:06:41;;;;;;;14.07;8.25;;;13.40;99.90;;;;;;5106643;28;20042;-76
2022/10/27 06:09:09;;;;;;;14.15;9.70;;;13.40;99.90;;;;;;5094877;28;20099;-78
2022/10/27 06:11:35;;;;;;;13.32;8.73;;;13.50;99.90;;;;;;5100729;28;20035;-77
2022/10/27 06:14:00;;;;;;;16.30;9.82;;;13.50;99.90;;;;;;5071620;28;20106;-78
2022/10/27 06:16:26;;;;;;;14.52;9.98;;;13.80;99.90;;;;;;5090849;28;20051;-78
2022/10/27 06:18:53;;;;;;;13.65;10.35;;;13.90;99.90;;;;;;5080735;28;20040;-77
2022/10/27 06:21:22;;;;;;;14.25;10.63;;;13.80;99.90;;;;;;5107233;28;20223;-76
2022/10/27 06:23:48;;;;;;;12.75;9.45;;;13.40;99.90;;;;;;5102262;28;20036;-74
2022/10/27 06:26:16;;;;;;;17.55;10.35;;;13.60;99.90;;;;;;5084715;28;20032;-74
2022/10/27 06:28:42;;;;;;;14.65;10.02;;;13.40;99.90;;;;;;5077842;28;20031;-74
2022/10/27 06:31:08;;;;;;;14.95;9.85;;;14.00;99.90;;;;;;5084889;28;20040;-76
2022/10/27 06:33:34;;;;;;;13.25;10.63;;;13.80;99.90;;;;;;5090895;28;20028;-75
2022/10/27 06:35:59;;;;;;;17.83;10.60;;;13.60;99.90;;;;;;5093100;28;20019;-74
2022/10/27 06:38:25;;;;;;;19.35;11.00;;;13.70;99.90;;;;;;5087637;28;20032;-74
2022/10/27 06:40:51;;;;;;;15.75;10.05;;;13.40;99.90;;;;;;5080561;28;20028;-74
2022/10/27 06:43:17;;;;;;;12.30;10.00;;;13.90;99.90;;;;;;5103241;28;20039;-75
2022/10/27 06:48:52;;;;;;;14.60;10.32;;;14.00;99.90;;;;;;5097441;28;20387;-75
2022/10/27 06:51:18;;;;;;;14.98;10.60;;;14.00;99.90;;;;;;5084606;28;20039;-76
2022/10/27 06:53:44;;;;;;;15.88;10.75;;;14.00;99.90;;;;;;5094312;28;20077;-76
2022/10/27 06:56:09;;;;;;;15.13;10.40;;;13.50;99.90;;;;;;5114136;27;20028;-76
2022/10/27 06:58:38;;;;;;;14.68;10.10;;;13.50;99.90;;;;;;5104232;27;20115;-75
2022/10/27 07:01:04;;;;;;;16.23;9.68;;;13.90;99.90;;;;;;5096224;28;20197;-75
2022/10/27 07:03:50;;;;;;;12.60;9.23;;;13.70;99.90;;;;;;5094362;28;20047;-74
2022/10/27 07:06:26;;;;;;;14.38;9.18;;;13.60;99.90;;;;;;5074282;28;20040;-76
2022/10/27 07:08:52;;;;;;;13.70;9.48;;;14.10;99.90;;;;;;5079405;28;20031;-74
2022/10/27 07:11:20;;;;;;;14.15;9.82;;;13.70;99.90;;;;;;5119711;28;20211;-75
2022/10/27 07:13:46;;;;;;;14.23;8.93;;;14.20;99.90;;;;;;5102653;28;20039;-78
2022/10/27 07:16:11;;;;;;;12.82;8.85;;;14.20;99.90;;;;;;5084526;28;20044;-76
2022/10/27 07:18:37;;;;;;;15.02;8.93;;;13.90;99.90;;;;;;5057661;28;20036;-77
2022/10/27 07:21:06;;;;;;;13.43;9.05;;;14.20;99.90;;;;;;5095264;28;20037;-73
2022/10/27 07:23:31;;;;;;;13.27;8.90;;;14.00;99.90;;;;;;5113180;28;20062;-74
2022/10/27 07:25:57;;;;;;;11.65;8.90;;;14.10;99.90;;;;;;5073469;28;20298;-75
2022/10/27 07:28:23;;;;;;;17.40;9.27;;;14.20;99.90;;;;;;5100689;27;20066;-76
2022/10/27 07:30:52;;;;;;;15.07;9.43;;;14.20;99.90;;;;;;5112508;27;20043;-76
2022/10/27 07:33:18;;;;;;;15.32;8.95;;;14.00;99.90;;;;;;5094385;28;20076;-75
2022/10/27 07:35:48;;;;;;;12.68;9.32;;;14.00;99.90;;;;;;5099400;28;20261;-74
2022/10/27 07:41:49;;;;;;;11.65;8.60;;;14.20;99.90;;;;;;5082162;28;20400;-76
2022/10/27 07:44:14;;;;;;;12.75;9.02;;;14.00;99.90;;;;;;5134878;27;20036;-74
2022/10/27 07:46:43;;;;;;;11.10;8.57;;;14.50;99.90;;;;;;5107659;28;20027;-75
2022/10/27 07:49:09;;;;;;;16.98;8.15;;;13.00;99.90;;;;;;5103518;28;20230;-77
2022/10/27 07:51:34;;;;;;;12.10;7.70;;;14.30;99.90;;;;;;5082123;28;20036;-76
2022/10/27 07:57:04;;;;;;;19.48;8.68;;;14.30;99.90;;;;;;5093663;27;20234;-74
2022/10/27 07:59:30;;;;;;;11.27;8.00;;;14.10;99.90;;;;;;5095455;28;20047;-76
2022/10/27 08:01:55;;;;;;;11.60;8.57;;;14.60;99.90;;;;;;5107562;27;20032;-74
2022/10/27 08:04:21;;;;;;;12.55;7.38;;;14.50;99.90;;;;;;5091950;28;20349;-75
2022/10/27 08:06:47;;;;;;;11.77;7.43;;;14.50;99.90;;;;;;5079485;28;20027;-77
2022/10/27 08:09:12;;;;;;;17.25;8.07;;;14.80;99.90;;;;;;5091624;28;20031;-75
2022/10/27 08:11:38;;;;;;;11.10;7.90;;;14.70;99.90;;;;;;5109880;28;20322;-75
2022/10/27 08:14:04;;;;;;;10.35;7.43;;;15.20;99.90;;;;;;5111573;28;20484;-75
2022/10/27 08:16:29;;;;;;;9.45;7.28;;;14.90;99.90;;;;;;5104413;28;20080;-75
2022/10/27 08:18:58;;;;;;;9.77;7.20;;;14.70;99.90;;;;;;5087056;28;20042;-77
2022/10/27 08:21:24;;;;;;;10.07;7.32;;;14.90;99.90;;;;;;5085371;28;20062;-77
2022/10/27 08:23:52;;;;;;;11.32;7.50;;;15.20;99.90;;;;;;5100391;28;20315;-76
2022/10/27 08:26:17;;;;;;;9.60;6.22;;;15.20;99.90;;;;;;5106479;28;20364;-76
2022/10/27 08:28:43;;;;;;;7.68;5.70;;;15.20;99.90;;;;;;5088959;28;20036;-76
2022/10/27 08:31:09;;;;;;;9.68;7.03;;;15.00;99.90;;;;;;5126592;28;20023;-76
2022/10/27 08:33:35;;;;;;;11.43;6.38;;;15.10;99.90;;;;;;5109637;28;20087;-74
2022/10/27 08:36:01;;;;;;;10.00;7.60;;;15.20;99.90;;;;;;5092950;28;20035;-75
2022/10/27 08:38:35;;;;;;;9.52;6.45;;;15.20;99.90;;;;;;5068919;28;20045;-76
2022/10/27 08:41:19;;;;;;;9.65;7.32;;;14.50;99.90;;;;;;5067082;28;20044;-75
2022/10/27 08:44:16;;;;;;;12.40;7.65;;;14.90;99.90;;;;;;5072816;28;20052;-74
2022/10/27 08:46:52;;;;;;;9.60;6.88;;;15.20;99.90;;;;;;5074287;28;20044;-77
2022/10/27 08:49:35;;;;;;;7.35;6.38;;;15.20;99.90;;;;;;5095784;28;20166;-74
2022/10/27 08:52:41;;;;;;;10.43;6.40;;;15.10;99.90;;;;;;5080705;28;20031;-77
2022/10/27 08:55:12;;;;;;;11.43;6.68;;;15.20;99.90;;;;;;5066292;28;20077;-75
2022/10/27 08:58:02;;;;;;;10.45;6.60;;;15.70;99.90;;;;;;5077060;28;20067;-75
2022/10/27 09:04:19;;;;;;;9.05;5.82;;;17.00;99.90;;;;;;4997086;28;20261;-75
2022/10/27 09:07:12;;;;;;;8.35;6.50;;;15.80;99.90;;;;;;5068309;28;20195;-74
2022/10/27 09:10:11;;;;;;;9.98;5.85;;;15.90;99.90;;;;;;5077364;28;20035;-75
2022/10/27 09:13:09;;;;;;;10.65;6.15;;;16.20;99.90;;;;;;5088552;28;20036;-78
2022/10/27 09:19:46;;;;;;;6.50;4.72;;;16.80;99.90;;;;;;5067660;28;20264;-74
2022/10/27 09:23:08;;;;;;;8.95;5.85;;;16.40;99.90;;;;;;5121434;28;20385;-76
2022/10/27 09:25:44;;;;;;;8.35;4.88;;;16.60;99.90;;;;;;5112593;28;20106;-74
2022/10/27 09:29:07;;;;;;;;;;;;;;;;;;;;;
2022/10/27 09:32:22;;;;;;;12.43;5.88;;;16.70;99.90;;;;;;5104685;28;20044;-75
2022/10/27 09:35:00;;;;;;;10.07;5.63;;;16.80;99.90;;;;;;5097593;28;20189;-80
2022/10/27 09:37:28;;;;;;;7.93;5.05;;;16.70;99.90;;;;;;5122569;28;20103;-75
2022/10/27 09:39:56;;;;;;;6.93;5.32;;;16.70;99.90;;;;;;5111952;27;20353;-74
2022/10/27 09:42:21;;;;;;;8.52;5.78;;;16.80;99.90;;;;;;5107844;28;20123;-75
2022/10/27 09:44:57;;;;;;;9.15;5.15;;;16.80;99.90;;;;;;5116333;28;20499;-76
2022/10/27 09:47:27;;;;;;;7.97;5.50;;;16.90;99.90;;;;;;5096814;28;20664;-74
2022/10/27 09:49:55;;;;;;;9.13;6.15;;;16.80;99.90;;;;;;5102167;28;20059;-75
2022/10/27 09:52:42;;;;;;;10.50;5.53;;;16.90;99.90;;;;;;5102922;28;20329;-76
2022/10/27 09:55:09;;;;;;;9.05;5.22;;;16.70;99.90;;;;;;5089973;28;20546;-74
2022/10/27 09:57:38;;;;;;;6.57;4.57;;;16.70;99.90;;;;;;5110621;28;20052;-76
2022/10/27 10:00:15;;;;;;;6.05;4.68;;;16.80;99.90;;;;;;5122211;28;20115;-76
2022/10/27 10:03:02;;;;;;;10.30;4.93;;;16.80;99.90;;;;;;5110518;28;20384;-76
2022/10/27 10:05:31;;;;;;;8.50;5.47;;;16.90;99.90;;;;;;5116160;28;20039;-77
2022/10/27 10:08:18;;;;;;;9.68;5.20;;;16.90;99.90;;;;;;5113953;28;20316;-76
2022/10/27 10:11:19;;;;;;;9.20;5.28;;;16.90;99.90;;;;;;5085310;28;20237;-75
2022/10/27 10:13:57;;;;;;;7.10;5.03;;;16.90;99.90;;;;;;5101328;28;20052;-74
2022/10/27 10:16:22;;;;;;;9.07;5.45;;;16.80;99.90;;;;;;5092818;28;20036;-76
2022/10/27 10:19:03;;;;;;;6.88;4.45;;;16.90;99.90;;;;;;5071837;28;20036;-74
2022/10/27 10:21:50;;;;;;;8.60;5.22;;;16.90;99.90;;;;;;5101935;28;20082;-75
2022/10/27 10:24:33;;;;;;;7.65;5.32;;;16.90;99.90;;;;;;5090945;28;20079;-74
2022/10/27 10:27:23;;;;;;;7.93;4.82;;;17.10;99.90;;;;;;5088440;28;20032;-73
2022/10/27 10:29:49;;;;;;;11.27;4.80;;;15.60;99.90;;;;;;5083791;28;20031;-75
2022/10/27 10:32:21;;;;;;;10.63;4.55;;;17.30;99.90;;;;;;5083155;28;20032;-76
2022/10/27 10:34:47;;;;;;;5.25;3.50;;;17.30;99.90;;;;;;5101781;28;20036;-76
2022/10/27 10:37:39;;;;;;;7.68;4.32;;;17.40;99.90;;;;;;5096540;28;20032;-75
2022/10/27 10:40:20;;;;;;;5.22;3.55;;;17.40;99.90;;;;;;5101104;28;20063;-74
2022/10/27 10:42:48;;;;;;;6.03;3.90;;;17.50;99.90;;;;;;5103480;28;20039;-75
2022/10/27 10:45:20;;;;;;;6.28;3.63;;;17.50;99.90;;;;;;5101717;28;20222;-77
2022/10/27 10:47:58;;;;;;;5.15;3.30;;;17.60;99.90;;;;;;5100731;28;20036;-78
2022/10/27 10:50:33;;;;;;;4.57;2.55;;;17.60;99.90;;;;;;5117682;28;20044;-75
2022/10/27 10:52:59;;;;;;;4.75;2.95;;;17.70;99.90;;;;;;5120305;28;20054;-77
2022/10/27 10:55:27;;;;;;;4.00;2.65;;;17.80;99.90;;;;;;5086822;28;20501;-75
2022/10/27 10:57:55;;;;;;;5.78;2.92;;;17.90;99.90;;;;;;5107428;28;20063;-76
2022/10/27 11:00:23;;;;;;;3.30;2.60;;;17.90;99.90;;;;;;5099975;28;20261;-76
2022/10/27 11:03:09;;;;;;;4.07;2.13;;;17.90;99.90;;;;;;5071075;28;20028;-76
2022/10/27 11:05:36;;;;;;;11.20;2.92;;;18.00;99.90;;;;;;5092663;28;20050;-77
2022/10/27 11:08:04;;;;;;;5.72;2.17;;;18.10;99.90;;;;;;5102577;28;20069;-75
2022/10/27 11:10:51;;;;;;;4.38;2.00;;;18.10;99.90;;;;;;5116636;28;20055;-76
2022/10/27 11:13:42;;;;;;;4.50;2.10;;;18.20;99.90;;;;;;5088867;28;20039;-74
2022/10/27 11:16:09;;;;;;;2.53;1.50;;;18.30;99.90;;;;;;5126196;27;20024;-73
2022/10/27 11:18:51;;;;;;;3.92;2.05;;;18.30;99.90;;;;;;5119909;28;20046;-74
2022/10/27 11:21:41;;;;;;;3.90;2.30;;;18.30;99.90;;;;;;5120512;28;20050;-79
2022/10/27 11:24:13;;;;;;;3.97;1.80;;;18.30;99.90;;;;;;5117476;28;20043;-77
2022/10/27 11:27:07;;;;;;;4.57;1.65;;;18.30;99.90;;;;;;5091070;28;20059;-77
2022/10/27 11:29:57;;;;;;;4.90;1.80;;;18.40;99.90;;;;;;5097106;28;20406;-72
2022/10/27 11:33:46;;;;;;;3.13;1.80;;;18.40;99.90;;;;;;5112365;28;21327;-76
2022/10/27 11:36:48;;;;;;;3.42;2.00;;;18.60;99.90;;;;;;5099591;27;20019;-74
2022/10/27 11:40:02;;;;;;;3.20;2.30;;;18.60;99.90;;;;;;5110141;27;20040;-77
2022/10/27 11:42:59;;;;;;;3.78;2.10;;;18.70;99.90;;;;;;5076771;28;20044;-73
2022/10/27 11:45:38;;;;;;;4.63;2.13;;;18.60;99.90;;;;;;5100040;28;20042;-73
2022/10/27 11:48:16;;;;;;;5.70;2.35;;;18.60;99.90;;;;;;5083390;28;20032;-74
2022/10/27 11:51:14;;;;;;;3.67;2.33;;;18.50;99.90;;;;;;5103225;28;20046;-78
2022/10/27 11:53:40;;;;;;;4.93;2.60;;;18.60;99.90;;;;;;5099779;28;20046;-73
2022/10/27 11:56:24;;;;;;;3.33;2.15;;;18.50;99.90;;;;;;5105120;28;20063;-75
2022/10/27 11:59:27;;;;;;;7.88;2.60;;;18.50;99.90;;;;;;5103483;28;20059;-73
2022/10/27 12:02:20;;;;;;;4.03;2.30;;;18.50;99.90;;;;;;5120120;27;20049;-75
2022/10/27 12:08:52;;;;;;;4.35;2.22;;;18.70;99.90;;;;;;5108538;28;20048;-76
2022/10/27 12:11:47;;;;;;;6.15;2.40;;;19.10;99.90;;;;;;5082590;28;20035;-76
2022/10/27 12:14:30;;;;;;;5.50;2.10;;;19.20;99.90;;;;;;5100413;28;20036;-76
2022/10/27 12:17:17;;;;;;;5.97;2.28;;;18.80;99.90;;;;;;5119094;28;20207;-73
2022/10/27 12:19:46;;;;;;;5.10;1.92;;;18.70;99.90;;;;;;5099836;28;20062;-76
2022/10/27 12:22:37;;;;;;;3.67;2.30;;;18.70;99.90;;;;;;5098951;28;20114;-75
2022/10/27 12:25:20;;;;;;;3.58;2.05;;;18.70;99.90;;;;;;5103934;28;20282;-74
2022/10/27 12:27:53;;;;;;;3.15;1.80;;;18.70;99.90;;;;;;5112213;28;20039;-74
2022/10/27 12:30:25;;;;;;;3.83;1.90;;;18.80;99.90;;;;;;5114173;28;20031;-73
2022/10/27 12:33:14;;;;;;;4.05;2.10;;;18.80;99.90;;;;;;5123983;28;20064;-75
2022/10/27 12:35:40;;;;;;;3.80;2.00;;;18.80;99.90;;;;;;5127104;28;20012;-74
2022/10/27 12:38:40;;;;;;;5.03;1.90;;;18.80;99.90;;;;;;5100251;28;20089;-77
2022/10/27 12:41:13;;;;;;;4.80;2.10;;;18.70;99.90;;;;;;5116749;28;20035;-76
2022/10/27 12:43:45;;;;;;;4.15;1.80;;;18.70;99.90;;;;;;5098563;28;20051;-76
2022/10/27 12:46:39;;;;;;;4.28;2.00;;;18.60;99.90;;;;;;5114699;28;20042;-76
2022/10/27 12:49:22;;;;;;;3.40;1.77;;;18.50;99.90;;;;;;5096672;28;20038;-75
2022/10/27 12:52:04;;;;;;;4.53;2.17;;;18.50;99.90;;;;;;5103349;27;20420;-72
2022/10/27 12:54:32;;;;;;;4.18;2.03;;;18.40;99.90;;;;;;5105194;28;20042;-70
2022/10/27 12:57:35;;;;;;;3.00;1.90;;;18.40;99.90;;;;;;5107529;28;20039;-75
2022/10/27 13:00:18;;;;;;;3.40;1.90;;;18.50;99.90;;;;;;5130069;27;20234;-75
2022/10/27 13:03:10;;;;;;;4.43;1.63;;;18.40;99.90;;;;;;5135655;27;20457;-76
2022/10/27 13:06:05;;;;;;;2.80;1.92;;;18.50;99.90;;;;;;5110909;28;20031;-78
2022/10/27 13:09:15;;;;;;;6.07;2.17;;;18.50;99.90;;;;;;5088888;28;20078;-77
2022/10/27 13:12:01;;;;;;;3.05;1.70;;;18.50;99.90;;;;;;5111856;28;20026;-77
2022/10/27 13:14:36;;;;;;;2.85;1.70;;;18.50;99.90;;;;;;5116849;28;20424;-75
2022/10/27 13:17:22;;;;;;;4.15;2.08;;;18.60;99.90;;;;;;5104735;28;20108;-75
2022/10/27 13:20:29;;;;;;;4.75;2.08;;;18.60;99.90;;;;;;5126714;27;20051;-75
2022/10/27 13:23:28;;;;;;;2.83;1.75;;;18.60;99.90;;;;;;5070335;28;20097;-74
2022/10/27 13:26:03;;;;;;;3.65;1.80;;;18.70;99.90;;;;;;5092656;28;20035;-75
2022/10/27 13:28:58;;;;;;;6.20;1.77;;;18.60;99.90;;;;;;5105765;28;20032;-77
2022/10/27 13:31:24;;;;;;;;;;;18.70;99.90;;;;;;5103266;28;20180;-77
2022/10/27 13:34:08;;;;;;;3.67;1.90;;;18.70;99.90;;;;;;5106926;28;19942;-78
2022/10/27 13:36:35;;;;;;;5.67;2.10;;;18.60;99.90;;;;;;5092385;28;20036;-75
2022/10/27 13:39:13;;;;;;;2.83;1.77;;;18.60;99.90;;;;;;5095046;28;20038;-76
2022/10/27 13:41:47;;;;;;;2.10;1.48;;;18.60;99.90;;;;;;5096616;27;20035;-75
2022/10/27 13:44:30;;;;;;;4.20;1.90;;;18.60;99.90;;;;;;5093016;28;20250;-74